Time;durP1;ratioP1;P1;durP2;ratioP2;P2;SDS_P1;SDS_P2;PMS_P1;PMS_P2;Temp;Humidity;BMP_temperature;BMP_pressure;BME280_temperature;BME280_humidity;BME280_pressure;Samples;Min_cycle;Max_cycle;Signal;HPM_P1;HPM_P2
2022/12/08 00:00:35;;;;;;;25.27;17.58;;;4.20;99.90;;;;;;7373697;32;20103;-59
2022/12/08 00:09:20;;;;;;;24.40;17.85;;;4.20;99.90;;;;;;7377947;32;20308;-59
2022/12/08 00:13:19;;;;;;;26.12;17.90;;;4.20;99.90;;;;;;7374378;32;20104;-59
2022/12/08 00:17:21;;;;;;;27.58;17.45;;;4.20;99.90;;;;;;7376273;32;20106;-59
2022/12/08 00:21:23;;;;;;;25.17;18.20;;;4.20;99.90;;;;;;7376991;32;20143;-59
2022/12/08 00:25:24;;;;;;;26.25;18.30;;;4.30;99.90;;;;;;7376268;32;20107;-59
2022/12/08 00:29:26;;;;;;;24.12;17.15;;;4.20;99.90;;;;;;7375631;32;20130;-59
2022/12/08 00:33:28;;;;;;;24.77;17.87;;;4.30;99.90;;;;;;7375404;32;20284;-59
2022/12/08 00:37:30;;;;;;;26.45;17.87;;;4.20;99.90;;;;;;7373883;32;20111;-59
2022/12/08 00:45:52;;;;;;;25.27;17.37;;;4.00;99.90;;;;;;7374121;32;20475;-59
2022/12/08 00:49:53;;;;;;;27.42;18.45;;;4.10;99.90;;;;;;7372582;32;20103;-59
2022/12/08 00:53:55;;;;;;;27.77;17.85;;;4.10;99.90;;;;;;7377499;32;20244;-59
2022/12/08 00:57:57;;;;;;;31.70;17.90;;;4.10;99.90;;;;;;7376844;32;20110;-59
2022/12/08 01:01:59;;;;;;;23.40;18.30;;;4.20;99.90;;;;;;7379881;32;20197;-59
2022/12/08 01:06:05;;;;;;;28.98;19.75;;;4.00;99.90;;;;;;7381726;32;20551;-59
2022/12/08 01:10:07;;;;;;;26.17;18.90;;;4.10;99.90;;;;;;7371773;32;20508;-61
2022/12/08 01:14:09;;;;;;;25.25;19.17;;;4.00;99.90;;;;;;7375618;32;20194;-58
2022/12/08 01:18:11;;;;;;;29.48;19.73;;;4.10;99.90;;;;;;7371026;32;20114;-59
2022/12/08 01:22:12;;;;;;;26.52;18.55;;;4.20;99.90;;;;;;7367438;32;20099;-59
2022/12/08 01:26:16;;;;;;;25.42;18.10;;;4.10;99.90;;;;;;7363315;32;20112;-59
2022/12/08 01:30:18;;;;;;;32.00;18.55;;;4.20;99.90;;;;;;7370710;32;20141;-59
2022/12/08 01:34:20;;;;;;;24.75;16.27;;;4.10;99.90;;;;;;7370364;32;20549;-59
2022/12/08 01:38:22;;;;;;;22.87;16.58;;;4.20;99.90;;;;;;7362398;32;20522;-59
2022/12/08 01:42:23;;;;;;;23.17;16.73;;;4.20;99.90;;;;;;7374610;32;20514;-59
2022/12/08 01:46:27;;;;;;;27.33;17.45;;;4.20;99.90;;;;;;7380629;32;20141;-59
2022/12/08 01:50:30;;;;;;;26.73;18.00;;;4.20;99.90;;;;;;7369540;32;20220;-59
2022/12/08 01:54:38;;;;;;;25.35;17.27;;;4.20;99.90;;;;;;7375502;32;20103;-60
2022/12/08 01:58:46;;;;;;;25.25;16.70;;;4.20;99.90;;;;;;7370310;32;20208;-59
2022/12/08 02:02:58;;;;;;;24.23;17.20;;;4.20;99.90;;;;;;7375641;32;20133;-59
2022/12/08 02:07:00;;;;;;;23.95;17.00;;;4.20;99.90;;;;;;7384037;32;20257;-59
2022/12/08 02:11:11;;;;;;;23.42;16.15;;;4.30;99.90;;;;;;7374821;32;20545;-59
2022/12/08 02:15:13;;;;;;;28.25;18.30;;;4.30;99.90;;;;;;7368247;32;20115;-59
2022/12/08 02:19:53;;;;;;;24.48;18.00;;;4.20;99.90;;;;;;7381346;32;20107;-59
2022/12/08 02:24:17;;;;;;;25.25;18.23;;;4.30;99.90;;;;;;7383237;32;20470;-59
2022/12/08 02:28:56;;;;;;;30.33;19.30;;;4.20;99.90;;;;;;7366925;32;20103;-59
2022/12/08 02:33:20;;;;;;;28.38;17.85;;;4.30;99.90;;;;;;7370367;32;20133;-59
2022/12/08 02:37:45;;;;;;;30.62;19.67;;;4.30;99.90;;;;;;7368424;32;20111;-59
2022/12/08 02:42:04;;;;;;;27.00;18.87;;;4.30;99.90;;;;;;7385164;32;20122;-59
2022/12/08 02:46:27;;;;;;;28.60;18.77;;;4.30;99.90;;;;;;7369329;32;20111;-59
2022/12/08 02:50:29;;;;;;;27.20;18.77;;;4.40;99.90;;;;;;7372243;32;20107;-59
2022/12/08 02:54:31;;;;;;;25.70;17.52;;;4.30;99.90;;;;;;7379779;32;20103;-59
2022/12/08 02:59:11;;;;;;;26.87;18.50;;;4.30;99.90;;;;;;7379701;32;20131;-59
2022/12/08 03:03:19;;;;;;;23.55;17.02;;;4.20;99.90;;;;;;7354420;32;20103;-59
2022/12/08 03:07:33;;;;;;;24.73;16.45;;;4.30;99.90;;;;;;7379304;32;20119;-59
2022/12/08 03:11:50;;;;;;;23.45;15.60;;;4.30;99.90;;;;;;7376417;32;20459;-59
2022/12/08 03:15:54;;;;;;;26.00;16.33;;;4.20;99.90;;;;;;7376355;32;20119;-59
2022/12/08 03:19:59;;;;;;;23.17;15.98;;;4.20;99.90;;;;;;7370991;32;20108;-60
2022/12/08 03:24:06;;;;;;;24.33;16.20;;;4.30;99.90;;;;;;7372285;32;20115;-60
2022/12/08 03:28:08;;;;;;;23.52;15.23;;;4.30;99.90;;;;;;7376682;32;20107;-60
2022/12/08 03:32:18;;;;;;;21.52;15.18;;;4.30;99.90;;;;;;7380818;32;20190;-59
2022/12/08 03:36:20;;;;;;;25.20;16.33;;;4.30;99.90;;;;;;7384020;32;20615;-59
2022/12/08 03:40:22;;;;;;;22.62;15.07;;;4.30;99.90;;;;;;7375042;32;20103;-60
2022/12/08 03:44:24;;;;;;;20.30;14.80;;;4.30;99.90;;;;;;7379936;32;20225;-60
2022/12/08 03:48:26;;;;;;;23.70;13.50;;;4.30;99.90;;;;;;7370594;32;20487;-59
2022/12/08 03:52:27;;;;;;;22.80;15.07;;;4.30;99.90;;;;;;7369158;32;20102;-58
2022/12/08 03:56:32;;;;;;;20.42;14.68;;;4.30;99.90;;;;;;7373256;32;20556;-58
2022/12/08 04:00:33;;;;;;;16.90;13.48;;;4.30;99.90;;;;;;7375257;32;20149;-59
2022/12/08 04:04:35;;;;;;;21.55;13.55;;;4.30;99.90;;;;;;7382560;32;20111;-59
2022/12/08 04:08:37;;;;;;;21.90;13.25;;;4.20;99.90;;;;;;7370739;32;20920;-59
2022/12/08 04:12:38;;;;;;;19.65;14.20;;;4.20;99.90;;;;;;7373555;32;20499;-59
2022/12/08 04:16:40;;;;;;;22.77;15.02;;;4.20;99.90;;;;;;7372079;32;20236;-58
2022/12/08 04:20:43;;;;;;;21.70;13.98;;;4.20;99.90;;;;;;7370742;32;20107;-59
2022/12/08 04:24:45;;;;;;;19.83;14.00;;;4.30;99.90;;;;;;7372367;32;20136;-59
2022/12/08 04:28:47;;;;;;;23.67;13.77;;;4.30;99.90;;;;;;7375278;32;20106;-58
2022/12/08 04:32:49;;;;;;;19.73;13.20;;;4.30;99.90;;;;;;7375316;32;20115;-59
2022/12/08 04:36:50;;;;;;;16.33;12.27;;;4.30;99.90;;;;;;7369096;32;20208;-59
2022/12/08 04:40:52;;;;;;;16.17;11.30;;;4.20;99.90;;;;;;7382029;32;20241;-59
2022/12/08 04:44:54;;;;;;;15.55;10.65;;;4.30;99.90;;;;;;7374476;32;20141;-59
2022/12/08 04:48:55;;;;;;;15.70;11.27;;;4.30;99.90;;;;;;7373517;32;20511;-59
2022/12/08 04:52:57;;;;;;;15.45;11.12;;;4.30;99.90;;;;;;7382694;32;20178;-59
2022/12/08 04:56:59;;;;;;;15.23;11.32;;;4.30;99.90;;;;;;7380441;32;20471;-58
2022/12/08 05:01:00;;;;;;;13.95;11.27;;;4.20;99.90;;;;;;7378459;32;20099;-59
2022/12/08 05:05:03;;;;;;;16.70;12.37;;;4.20;99.90;;;;;;7371273;32;20151;-59
2022/12/08 05:09:05;;;;;;;18.25;12.55;;;4.30;99.90;;;;;;7379183;32;20115;-59
2022/12/08 05:13:06;;;;;;;16.62;12.32;;;4.20;99.90;;;;;;7382562;32;20129;-58
2022/12/08 05:17:08;;;;;;;16.37;12.77;;;4.20;99.90;;;;;;7369849;32;20190;-59
2022/12/08 05:21:11;;;;;;;16.87;12.65;;;4.20;99.90;;;;;;7377397;32;20217;-60
2022/12/08 05:25:13;;;;;;;19.85;13.90;;;4.20;99.90;;;;;;7372626;32;20110;-59
2022/12/08 05:29:15;;;;;;;18.73;13.57;;;4.20;99.90;;;;;;7375080;32;20249;-59
2022/12/08 05:33:17;;;;;;;22.65;15.38;;;4.30;99.90;;;;;;7373635;32;20111;-59
2022/12/08 05:37:18;;;;;;;21.35;15.52;;;4.20;99.90;;;;;;7374111;32;20102;-60
2022/12/08 05:41:20;;;;;;;22.15;16.30;;;4.30;99.90;;;;;;7367037;32;20190;-60
2022/12/08 05:45:22;;;;;;;21.33;16.25;;;4.30;99.90;;;;;;7375318;32;20352;-60
2022/12/08 05:49:23;;;;;;;24.90;17.00;;;4.20;99.90;;;;;;7376649;32;20110;-60
2022/12/08 05:53:26;;;;;;;26.27;17.40;;;4.20;99.90;;;;;;7374628;32;20102;-60
2022/12/08 05:57:27;;;;;;;30.50;18.60;;;4.20;99.90;;;;;;7367571;32;20119;-61
2022/12/08 06:01:30;;;;;;;31.08;18.00;;;4.20;99.90;;;;;;7373634;32;20130;-60
2022/12/08 06:05:33;;;;;;;26.42;18.15;;;4.20;99.90;;;;;;7368343;32;20127;-60
2022/12/08 06:09:35;;;;;;;25.58;18.33;;;4.20;99.90;;;;;;7376493;32;20146;-60
2022/12/08 06:13:37;;;;;;;26.67;18.45;;;4.20;99.90;;;;;;7372737;32;20225;-60
2022/12/08 06:17:38;;;;;;;28.80;20.08;;;4.20;99.90;;;;;;7373085;32;20153;-60
2022/12/08 06:21:40;;;;;;;27.83;19.92;;;4.20;99.90;;;;;;7383342;32;20135;-59
2022/12/08 06:25:42;;;;;;;31.08;19.95;;;4.20;99.90;;;;;;7375438;32;20503;-58
2022/12/08 06:29:43;;;;;;;33.75;21.87;;;4.20;99.90;;;;;;7374747;32;20115;-60
2022/12/08 06:33:45;;;;;;;31.48;20.33;;;4.20;99.90;;;;;;7380961;32;20157;-60
2022/12/08 06:37:47;;;;;;;34.88;21.20;;;4.20;99.90;;;;;;7373527;32;20103;-60
2022/12/08 06:46:13;;;;;;;29.73;19.80;;;4.20;99.90;;;;;;7374311;32;20463;-60
2022/12/08 06:50:15;;;;;;;31.35;20.33;;;4.20;99.90;;;;;;7381630;32;20135;-60
2022/12/08 06:54:16;;;;;;;31.92;20.67;;;4.20;99.90;;;;;;7380274;32;20102;-60
2022/12/08 06:58:19;;;;;;;31.10;20.58;;;4.20;99.90;;;;;;7380044;32;20103;-60
2022/12/08 07:02:20;;;;;;;26.33;19.17;;;4.10;99.90;;;;;;7381829;32;20182;-60
2022/12/08 07:06:23;;;;;;;23.08;17.77;;;4.10;99.90;;;;;;7379128;32;20213;-60
2022/12/08 07:10:25;;;;;;;27.08;16.60;;;4.10;99.90;;;;;;7375218;32;20144;-60
2022/12/08 07:14:27;;;;;;;23.27;15.60;;;4.00;99.90;;;;;;7381022;32;20125;-60
2022/12/08 07:18:28;;;;;;;24.87;15.57;;;4.00;99.90;;;;;;7377909;32;20498;-60
2022/12/08 07:22:30;;;;;;;23.65;16.25;;;3.90;99.90;;;;;;7379684;32;20176;-60
2022/12/08 07:26:31;;;;;;;24.05;16.48;;;3.90;99.90;;;;;;7376156;32;20145;-62
2022/12/08 07:30:33;;;;;;;24.58;17.60;;;3.90;99.90;;;;;;7377237;32;20169;-61
2022/12/08 07:34:35;;;;;;;21.98;14.98;;;3.90;99.90;;;;;;7374068;32;20157;-61
2022/12/08 07:38:37;;;;;;;18.92;14.35;;;4.00;99.90;;;;;;7373964;32;20614;-61
2022/12/08 07:42:38;;;;;;;18.12;12.60;;;3.90;99.90;;;;;;7368482;32;20103;-62
2022/12/08 07:46:40;;;;;;;19.80;14.20;;;3.80;99.90;;;;;;7381024;32;20765;-61
2022/12/08 07:50:42;;;;;;;19.83;13.43;;;3.70;99.90;;;;;;7380997;32;20134;-61
2022/12/08 07:54:43;;;;;;;21.48;13.68;;;3.70;99.90;;;;;;7369447;32;20227;-61
2022/12/08 07:58:45;;;;;;;23.80;14.77;;;3.70;99.90;;;;;;7373590;32;20129;-60
2022/12/08 08:02:47;;;;;;;21.10;14.45;;;3.70;99.90;;;;;;7376120;32;20541;-59
2022/12/08 08:06:49;;;;;;;19.73;13.40;;;3.70;99.90;;;;;;7379476;32;20507;-60
2022/12/08 08:10:51;;;;;;;19.80;14.02;;;3.70;99.90;;;;;;7375508;32;20224;-60
2022/12/08 08:14:52;;;;;;;23.35;13.57;;;3.70;99.90;;;;;;7367643;32;20519;-60
2022/12/08 08:18:54;;;;;;;23.95;13.82;;;3.70;99.90;;;;;;7381100;32;20126;-60
2022/12/08 08:22:56;;;;;;;19.25;13.45;;;3.70;99.90;;;;;;7372477;32;20455;-61
2022/12/08 08:26:57;;;;;;;19.55;12.85;;;3.70;99.90;;;;;;7374753;32;20099;-61
2022/12/08 08:30:59;;;;;;;23.02;14.13;;;3.60;99.90;;;;;;7378009;32;20193;-61
2022/12/08 08:35:02;;;;;;;20.35;15.00;;;3.50;99.90;;;;;;7367653;32;20194;-60
2022/12/08 08:39:04;;;;;;;21.02;13.95;;;3.50;99.90;;;;;;7370153;32;20104;-60
2022/12/08 08:43:05;;;;;;;21.08;14.63;;;3.60;99.90;;;;;;7372403;32;20140;-60
2022/12/08 08:47:07;;;;;;;21.62;14.57;;;3.60;99.90;;;;;;7370455;32;20121;-61
2022/12/08 08:51:11;;;;;;;22.90;15.93;;;3.60;99.90;;;;;;7368514;32;20760;-61
2022/12/08 08:55:13;;;;;;;22.92;16.08;;;3.60;99.90;;;;;;7365745;32;20133;-62
2022/12/08 08:59:14;;;;;;;24.85;16.85;;;3.50;99.90;;;;;;7375935;32;20517;-61
2022/12/08 09:03:17;;;;;;;26.73;17.55;;;3.50;99.90;;;;;;7371178;32;20732;-61
2022/12/08 09:07:19;;;;;;;28.60;17.90;;;3.50;99.90;;;;;;7368501;32;20208;-61
2022/12/08 09:11:24;;;;;;;27.67;18.00;;;3.50;99.90;;;;;;7353364;32;20212;-62
2022/12/08 09:15:26;;;;;;;30.30;18.83;;;3.50;99.90;;;;;;7359337;32;20256;-61
2022/12/08 09:19:27;;;;;;;28.50;18.45;;;3.60;99.90;;;;;;7364238;32;20533;-61
2022/12/08 09:23:29;;;;;;;38.78;19.67;;;3.60;99.90;;;;;;7362396;32;20190;-62
2022/12/08 09:27:36;;;;;;;29.33;18.83;;;3.70;99.90;;;;;;7364065;32;20179;-60
2022/12/08 09:31:38;;;;;;;31.02;19.42;;;3.80;99.90;;;;;;7366143;32;20215;-59
2022/12/08 09:35:40;;;;;;;28.20;18.30;;;3.70;99.90;;;;;;7358712;32;20649;-60
2022/12/08 09:39:41;;;;;;;34.08;19.87;;;3.80;99.90;;;;;;7365083;32;20665;-59
2022/12/08 09:44:01;;;;;;;31.58;19.25;;;3.80;99.90;;;;;;7364865;32;20189;-62
2022/12/08 09:48:13;;;;;;;30.27;18.33;;;3.80;99.90;;;;;;7361294;32;20996;-61
2022/12/08 09:52:38;;;;;;;28.23;17.67;;;3.90;99.90;;;;;;7361010;32;20204;-59
2022/12/08 09:56:40;;;;;;;33.42;18.55;;;3.80;99.90;;;;;;7361658;32;20272;-60
2022/12/08 10:00:42;;;;;;;29.05;17.65;;;3.80;99.90;;;;;;7353117;32;20712;-60
2022/12/08 10:04:44;;;;;;;27.83;16.95;;;3.80;99.90;;;;;;7356014;32;20160;-60
2022/12/08 10:09:14;;;;;;;25.95;17.17;;;3.80;99.90;;;;;;7362515;32;20519;-60
2022/12/08 10:13:45;;;;;;;30.67;17.87;;;3.80;99.90;;;;;;7332394;32;20876;-60
2022/12/08 10:17:49;;;;;;;29.12;18.05;;;3.90;99.90;;;;;;7367648;32;20186;-59
2022/12/08 10:21:53;;;;;;;27.17;17.90;;;3.90;99.90;;;;;;7363411;32;20216;-60
2022/12/08 10:26:06;;;;;;;30.42;18.25;;;4.00;99.90;;;;;;7366289;32;20174;-60
2022/12/08 10:30:12;;;;;;;25.52;17.50;;;3.90;99.90;;;;;;7361185;32;20213;-59
2022/12/08 10:34:25;;;;;;;29.77;16.53;;;3.90;99.90;;;;;;7362412;32;20189;-59
2022/12/08 10:38:34;;;;;;;26.12;17.10;;;3.90;99.90;;;;;;7366163;32;20582;-60
2022/12/08 10:42:52;;;;;;;28.77;16.65;;;3.90;99.90;;;;;;7362740;32;20207;-59
2022/12/08 10:46:54;;;;;;;22.75;15.95;;;3.90;99.90;;;;;;7355702;32;20204;-60
2022/12/08 10:50:58;;;;;;;28.20;17.40;;;3.90;99.90;;;;;;7359519;32;20230;-60
2022/12/08 10:54:59;;;;;;;26.27;16.27;;;4.00;99.90;;;;;;7353455;32;20226;-62
2022/12/08 10:59:17;;;;;;;25.92;16.05;;;4.10;99.90;;;;;;7370045;32;20503;-59
2022/12/08 11:03:30;;;;;;;25.65;16.30;;;4.20;99.90;;;;;;7363157;32;20249;-60
2022/12/08 11:07:32;;;;;;;25.42;16.00;;;4.20;99.90;;;;;;7362057;32;20112;-60
2022/12/08 11:11:54;;;;;;;26.92;15.85;;;4.20;99.90;;;;;;7366362;32;20111;-59
2022/12/08 11:15:56;;;;;;;24.58;16.27;;;4.30;99.90;;;;;;7364732;32;20200;-61
2022/12/08 11:20:07;;;;;;;24.25;14.48;;;4.30;99.90;;;;;;7361704;32;20217;-60
2022/12/08 11:24:22;;;;;;;21.98;14.30;;;4.40;99.90;;;;;;7367708;32;20209;-60
2022/12/08 11:28:24;;;;;;;24.83;15.45;;;4.40;99.90;;;;;;7363592;32;20291;-63
2022/12/08 11:32:26;;;;;;;23.45;14.05;;;4.40;99.90;;;;;;7368263;32;20539;-63
2022/12/08 11:36:31;;;;;;;23.62;13.18;;;4.50;99.90;;;;;;7363348;32;20220;-62
2022/12/08 11:40:39;;;;;;;24.95;14.70;;;4.40;99.90;;;;;;7365683;32;20111;-62
2022/12/08 11:44:48;;;;;;;25.77;14.35;;;4.40;99.90;;;;;;7363875;32;20183;-62
2022/12/08 11:48:58;;;;;;;22.95;14.98;;;4.30;99.90;;;;;;7369515;32;20189;-63
2022/12/08 11:53:12;;;;;;;;;;;4.30;99.90;;;;;;7372715;32;20205;-63
2022/12/08 11:57:19;;;;;;;21.60;13.67;;;4.30;99.90;;;;;;7361669;32;21571;-63
2022/12/08 12:01:24;;;;;;;25.70;14.18;;;4.40;99.90;;;;;;7361799;32;20186;-62
2022/12/08 12:05:52;;;;;;;25.30;14.85;;;4.40;99.90;;;;;;7365431;32;20526;-61
2022/12/08 12:10:14;;;;;;;;;;;4.40;99.90;;;;;;7376806;32;20149;-60
2022/12/08 12:14:45;;;;;;;24.17;14.18;;;4.30;99.90;;;;;;7382649;32;20002;-60
2022/12/08 12:19:00;;;;;;;21.00;12.88;;;4.20;99.90;;;;;;7373699;32;20177;-61
2022/12/08 12:23:28;;;;;;;24.65;14.30;;;4.20;99.90;;;;;;7372958;32;20219;-62
2022/12/08 12:27:37;;;;;;;;;;;4.20;99.90;;;;;;7355292;32;20175;-59
2022/12/08 12:31:46;;;;;;;20.15;13.32;;;4.10;99.90;;;;;;7367962;32;20366;-59
2022/12/08 12:35:48;;;;;;;18.52;11.55;;;4.20;99.90;;;;;;7374177;32;20548;-60
2022/12/08 12:40:01;;;;;;;21.85;12.73;;;4.20;99.90;;;;;;7376324;32;20095;-59
2022/12/08 12:44:09;;;;;;;23.87;13.18;;;4.30;99.90;;;;;;7376772;32;20127;-59
2022/12/08 12:48:21;;;;;;;21.75;12.02;;;4.40;99.90;;;;;;7370053;32;20103;-60
2022/12/08 12:52:35;;;;;;;20.58;11.60;;;4.40;99.90;;;;;;7377032;32;20103;-60
2022/12/08 12:56:52;;;;;;;22.62;11.68;;;4.50;99.90;;;;;;7375508;32;20263;-59
2022/12/08 13:01:12;;;;;;;16.55;11.32;;;4.40;99.90;;;;;;7355843;32;20245;-60
2022/12/08 13:05:19;;;;;;;18.30;11.63;;;4.20;99.90;;;;;;7362628;32;20292;-61
2022/12/08 13:09:38;;;;;;;;;;;4.20;99.90;;;;;;7367392;32;20660;-61
2022/12/08 13:14:02;;;;;;;16.67;10.25;;;4.20;99.90;;;;;;7362405;32;20101;-62
2022/12/08 13:18:17;;;;;;;16.98;11.02;;;4.10;99.90;;;;;;7356760;32;20190;-61
2022/12/08 13:22:47;;;;;;;17.00;10.43;;;4.10;99.90;;;;;;7357407;32;20197;-61
2022/12/08 13:27:04;;;;;;;17.58;10.95;;;4.10;99.90;;;;;;7359000;32;20233;-61
2022/12/08 13:31:35;;;;;;;19.20;12.00;;;4.20;99.90;;;;;;7360879;32;20208;-61
2022/12/08 13:35:43;;;;;;;22.23;11.35;;;4.30;99.90;;;;;;7358826;32;20261;-61
2022/12/08 13:40:08;;;;;;;19.33;11.95;;;4.20;99.90;;;;;;7364552;32;20198;-61
2022/12/08 13:44:23;;;;;;;19.75;12.63;;;4.20;99.90;;;;;;7355648;32;20141;-58
2022/12/08 13:48:53;;;;;;;20.60;13.00;;;4.20;99.90;;;;;;7357395;32;20604;-59
2022/12/08 13:53:18;;;;;;;19.37;13.43;;;4.20;99.90;;;;;;7359262;32;20190;-59
2022/12/08 13:57:41;;;;;;;20.42;13.38;;;4.20;99.90;;;;;;7358986;32;20515;-60
2022/12/08 14:01:45;;;;;;;21.02;13.80;;;4.20;99.90;;;;;;7357101;32;20162;-61
2022/12/08 14:05:47;;;;;;;19.52;12.68;;;4.30;99.90;;;;;;7363526;32;20118;-60
2022/12/08 14:10:17;;;;;;;16.15;11.07;;;4.40;99.90;;;;;;7363438;32;20540;-60
2022/12/08 14:14:23;;;;;;;19.42;11.48;;;4.30;99.90;;;;;;7350890;32;20276;-62
2022/12/08 14:18:45;;;;;;;17.35;11.15;;;4.20;99.90;;;;;;7361184;32;20512;-60
2022/12/08 14:22:48;;;;;;;17.75;11.15;;;4.30;99.90;;;;;;7362597;32;20250;-62
2022/12/08 14:26:58;;;;;;;19.60;11.25;;;4.20;99.90;;;;;;7362227;32;20201;-60
2022/12/08 14:31:02;;;;;;;16.45;10.63;;;4.20;99.90;;;;;;7355469;32;20107;-60
2022/12/08 14:35:07;;;;;;;14.82;10.20;;;4.10;99.90;;;;;;7376060;32;20519;-61
2022/12/08 14:39:09;;;;;;;19.15;11.55;;;4.10;99.90;;;;;;7372818;32;20115;-61
2022/12/08 14:43:17;;;;;;;19.05;11.23;;;4.20;99.90;;;;;;7377339;32;20598;-60
2022/12/08 14:47:20;;;;;;;17.98;11.45;;;4.10;99.90;;;;;;7376896;32;20130;-60
2022/12/08 14:51:27;;;;;;;15.40;10.68;;;4.10;99.90;;;;;;7376223;32;20245;-60
2022/12/08 14:55:36;;;;;;;18.20;11.70;;;4.20;99.90;;;;;;7380262;32;20157;-60
2022/12/08 14:59:38;;;;;;;17.30;10.70;;;4.20;99.90;;;;;;7378257;32;20525;-60
2022/12/08 15:03:40;;;;;;;15.70;9.25;;;4.20;99.90;;;;;;7373734;32;20121;-61
2022/12/08 15:07:58;;;;;;;19.02;10.85;;;4.20;99.90;;;;;;7365766;32;20254;-60
2022/12/08 15:12:11;;;;;;;15.65;9.60;;;4.10;99.90;;;;;;7366329;32;20594;-59
2022/12/08 15:16:30;;;;;;;16.55;10.52;;;4.00;99.90;;;;;;7363210;32;20209;-59
2022/12/08 15:20:46;;;;;;;16.95;8.82;;;4.00;99.90;;;;;;7369273;32;20249;-59
2022/12/08 15:24:47;;;;;;;17.55;9.10;;;4.00;99.90;;;;;;7368218;32;20198;-60
2022/12/08 15:28:49;;;;;;;13.10;7.43;;;4.00;99.90;;;;;;7368284;32;20189;-61
2022/12/08 15:32:53;;;;;;;14.32;8.02;;;4.00;99.90;;;;;;7365150;32;20199;-61
2022/12/08 15:36:54;;;;;;;14.73;7.50;;;4.00;99.90;;;;;;7362128;32;20178;-61
2022/12/08 15:40:59;;;;;;;13.98;8.38;;;4.00;99.90;;;;;;7363203;32;20306;-60
2022/12/08 15:45:01;;;;;;;13.10;7.93;;;3.90;99.90;;;;;;7368659;32;20126;-58
2022/12/08 15:49:03;;;;;;;10.50;7.45;;;4.00;99.90;;;;;;7363880;32;20249;-59
2022/12/08 15:53:04;;;;;;;11.35;8.18;;;4.00;99.90;;;;;;7362157;32;20217;-59
2022/12/08 15:57:17;;;;;;;17.08;9.30;;;3.90;99.90;;;;;;7357919;32;20638;-59
2022/12/08 16:01:30;;;;;;;18.23;9.35;;;4.00;99.90;;;;;;7361019;32;20204;-60
2022/12/08 16:05:32;;;;;;;15.98;10.00;;;4.00;99.90;;;;;;7351505;32;20232;-60
2022/12/08 16:09:55;;;;;;;17.65;10.63;;;4.10;99.90;;;;;;7362904;32;20119;-61
2022/12/08 16:13:57;;;;;;;15.60;9.68;;;4.00;99.90;;;;;;7365149;32;20119;-61
2022/12/08 16:18:25;;;;;;;15.77;10.00;;;4.10;99.90;;;;;;7374186;32;20107;-61
2022/12/08 16:22:30;;;;;;;13.85;9.38;;;4.00;99.90;;;;;;7371851;32;20210;-60
2022/12/08 16:26:53;;;;;;;14.13;8.40;;;4.10;99.90;;;;;;7368038;32;20185;-60
2022/12/08 16:31:14;;;;;;;14.25;9.25;;;4.10;99.90;;;;;;7373176;32;20433;-60
2022/12/08 16:35:23;;;;;;;15.90;9.43;;;4.10;99.90;;;;;;7385049;32;20103;-63
2022/12/08 16:39:25;;;;;;;15.20;9.30;;;4.10;99.90;;;;;;7373699;32;20462;-61
2022/12/08 16:43:26;;;;;;;17.67;9.00;;;4.40;99.90;;;;;;7375042;32;20106;-62
2022/12/08 16:47:28;;;;;;;16.58;9.73;;;4.30;99.90;;;;;;7375927;32;20134;-62
2022/12/08 16:51:30;;;;;;;12.90;8.77;;;4.20;99.90;;;;;;7379792;32;20673;-61
2022/12/08 16:55:33;;;;;;;16.62;9.25;;;4.10;99.90;;;;;;7373464;32;20247;-62
2022/12/08 16:59:36;;;;;;;15.35;9.32;;;4.10;99.90;;;;;;7373306;32;20107;-61
2022/12/08 17:03:40;;;;;;;15.32;10.18;;;4.10;99.90;;;;;;7385671;32;20095;-62
2022/12/08 17:07:45;;;;;;;17.87;10.20;;;4.00;99.90;;;;;;7379031;32;20107;-61
2022/12/08 17:11:46;;;;;;;15.70;10.02;;;4.10;99.90;;;;;;7379221;32;20193;-61
2022/12/08 17:15:48;;;;;;;20.35;10.32;;;4.10;99.90;;;;;;7369373;32;20121;-61
2022/12/08 17:19:50;;;;;;;18.80;10.48;;;4.10;99.90;;;;;;7378561;32;20557;-61
2022/12/08 17:23:51;;;;;;;15.60;9.93;;;4.10;99.90;;;;;;7375218;32;20378;-61
2022/12/08 17:27:55;;;;;;;18.83;10.32;;;4.10;99.90;;;;;;7375116;32;20106;-62
2022/12/08 17:31:57;;;;;;;19.45;10.15;;;4.00;99.90;;;;;;7350049;32;20123;-61
2022/12/08 17:35:59;;;;;;;15.07;9.80;;;4.00;99.90;;;;;;7372788;32;21276;-61
2022/12/08 17:40:01;;;;;;;18.48;9.70;;;4.10;99.90;;;;;;7361291;32;20107;-61
2022/12/08 17:44:08;;;;;;;18.27;9.65;;;4.10;99.90;;;;;;7352364;32;20206;-62
2022/12/08 17:48:10;;;;;;;19.65;10.40;;;4.10;99.90;;;;;;7352316;32;20354;-61
2022/12/08 17:52:12;;;;;;;16.42;8.80;;;4.00;99.90;;;;;;7358105;32;20216;-61
2022/12/08 17:56:17;;;;;;;15.07;8.98;;;4.10;99.90;;;;;;7363795;32;20190;-61
2022/12/08 18:00:19;;;;;;;20.08;9.88;;;4.10;99.90;;;;;;7358462;32;20197;-60
2022/12/08 18:04:21;;;;;;;14.55;9.43;;;4.10;99.90;;;;;;7367001;32;20288;-61
2022/12/08 18:08:22;;;;;;;16.27;9.55;;;4.10;99.90;;;;;;7369040;32;20216;-61
2022/12/08 18:12:24;;;;;;;12.68;8.45;;;4.20;99.90;;;;;;7367278;32;20411;-62
2022/12/08 18:16:26;;;;;;;17.10;8.73;;;4.20;99.90;;;;;;7368419;32;20151;-62
2022/12/08 18:20:28;;;;;;;16.92;8.50;;;4.10;99.90;;;;;;7365409;32;20238;-60
2022/12/08 18:24:30;;;;;;;16.12;9.15;;;4.20;99.90;;;;;;7370841;32;20263;-61
2022/12/08 18:28:32;;;;;;;18.87;9.23;;;4.20;99.90;;;;;;7366185;32;20261;-61
2022/12/08 18:32:34;;;;;;;17.02;9.18;;;4.10;99.90;;;;;;7368197;32;20791;-62
2022/12/08 18:36:36;;;;;;;14.50;9.43;;;4.00;99.90;;;;;;7367680;32;20174;-61
2022/12/08 18:40:37;;;;;;;15.65;9.18;;;4.00;99.90;;;;;;7367962;32;20463;-61
2022/12/08 18:44:39;;;;;;;18.73;9.00;;;4.00;99.90;;;;;;7364903;32;20178;-61
2022/12/08 18:48:47;;;;;;;17.10;9.77;;;3.90;99.90;;;;;;7359217;32;20190;-61
2022/12/08 18:52:48;;;;;;;20.85;9.85;;;3.80;99.90;;;;;;7368240;32;20598;-61
2022/12/08 18:56:50;;;;;;;14.45;9.52;;;3.80;99.90;;;;;;7368754;32;20103;-64
2022/12/08 19:00:52;;;;;;;18.00;10.25;;;3.70;99.90;;;;;;7379375;32;20277;-62
2022/12/08 19:04:54;;;;;;;18.95;9.93;;;3.70;99.90;;;;;;7371839;32;20130;-60
2022/12/08 19:08:56;;;;;;;19.12;10.02;;;3.70;99.90;;;;;;7374120;32;20107;-60
2022/12/08 19:12:58;;;;;;;23.08;11.02;;;3.70;99.90;;;;;;7382154;32;20119;-61
2022/12/08 19:17:00;;;;;;;21.75;10.52;;;3.60;99.90;;;;;;7385111;32;20141;-60
2022/12/08 19:21:01;;;;;;;15.18;10.38;;;3.70;99.90;;;;;;7378757;32;20206;-60
2022/12/08 19:25:04;;;;;;;16.05;9.82;;;3.70;99.90;;;;;;7378398;32;20157;-60
2022/12/08 19:29:05;;;;;;;16.27;10.45;;;3.60;99.90;;;;;;7368769;32;20200;-60
2022/12/08 19:33:07;;;;;;;17.37;10.48;;;3.70;99.90;;;;;;7365468;32;20185;-60
2022/12/08 19:37:11;;;;;;;26.35;11.60;;;3.70;99.90;;;;;;7359834;32;20612;-59
2022/12/08 19:45:35;;;;;;;15.27;10.57;;;3.70;99.90;;;;;;7361996;32;20198;-61
2022/12/08 19:49:37;;;;;;;18.45;12.07;;;3.60;99.90;;;;;;7360069;32;20249;-60
2022/12/08 19:53:40;;;;;;;19.42;12.45;;;3.60;99.90;;;;;;7364967;32;20190;-59
2022/12/08 19:57:49;;;;;;;18.15;12.07;;;3.70;99.90;;;;;;7365076;32;20107;-59
2022/12/08 20:01:54;;;;;;;18.10;11.65;;;3.50;99.90;;;;;;7370866;32;20496;-60
2022/12/08 20:05:56;;;;;;;16.52;10.68;;;3.40;99.90;;;;;;7363815;32;20249;-59
2022/12/08 20:09:58;;;;;;;18.37;11.38;;;3.30;99.90;;;;;;7365587;32;21013;-60
2022/12/08 20:13:59;;;;;;;20.55;11.60;;;3.20;99.90;;;;;;7354052;32;20204;-59
2022/12/08 20:18:01;;;;;;;18.83;11.48;;;3.10;99.90;;;;;;7357003;32;20204;-59
2022/12/08 20:22:03;;;;;;;16.62;11.80;;;2.90;99.90;;;;;;7366418;32;20943;-60
2022/12/08 20:26:07;;;;;;;21.02;13.35;;;2.80;99.90;;;;;;7365879;32;20195;-60
2022/12/08 20:30:09;;;;;;;16.55;11.18;;;2.70;99.90;;;;;;7365962;32;20266;-60
2022/12/08 20:34:18;;;;;;;20.42;13.07;;;2.50;99.90;;;;;;7362047;32;20661;-58
2022/12/08 20:38:20;;;;;;;20.58;12.35;;;2.20;99.90;;;;;;7365654;32;20320;-58
2022/12/08 20:42:22;;;;;;;22.30;12.90;;;2.10;99.90;;;;;;7359232;32;20238;-59
2022/12/08 20:46:24;;;;;;;22.87;14.07;;;2.10;99.90;;;;;;7370452;32;20560;-60
2022/12/08 20:50:27;;;;;;;20.52;12.68;;;2.10;99.90;;;;;;7362479;32;20209;-60
2022/12/08 20:54:29;;;;;;;21.77;14.48;;;2.10;99.90;;;;;;7359393;32;20182;-59
2022/12/08 20:58:30;;;;;;;23.20;15.20;;;2.10;99.90;;;;;;7359741;32;20252;-60
2022/12/08 21:02:32;;;;;;;24.92;15.13;;;2.20;99.90;;;;;;7360518;32;20137;-63
2022/12/08 21:06:34;;;;;;;21.50;14.98;;;2.30;99.90;;;;;;7353253;32;20102;-59
2022/12/08 21:10:36;;;;;;;26.55;16.00;;;2.30;99.90;;;;;;7353035;32;20107;-59
2022/12/08 21:14:44;;;;;;;23.77;15.98;;;2.30;99.90;;;;;;7358537;32;20198;-61
2022/12/08 21:18:46;;;;;;;29.35;17.10;;;2.40;99.90;;;;;;7366090;32;20210;-59
2022/12/08 21:22:48;;;;;;;23.15;16.30;;;2.40;99.90;;;;;;7367501;32;20129;-60
2022/12/08 21:26:50;;;;;;;22.15;15.93;;;2.50;99.90;;;;;;7354994;32;20159;-60